Flight Track Log - Related Links

Times and Time Zones

All times are in EDT time to prevent confusion due to time zone crossing. See the JBU59 flight status page for this flight to view local times or setup timezone preferences in your user account.

Time Position Orientation Groundspeed Altitude Reporting Facility
EDT Latitude Longitude Course Direction KTS MPH feet Rate Location/Type
Wed 06:23:30 PM 44.4311 -73.2919 196° South 278 320 6,700  Level Boston Center
Wed 06:24:00 PM 44.1507 -73.2685 195° South  Level FlightAware Approximate
Wed 06:24:30 PM 44.3622 -73.3200 196° South 292 336 9,800  Level Boston Center
Wed 06:25:00 PM 44.0712 -73.2983 195° South  Level FlightAware Approximate
Wed 06:25:30 PM 44.2744 -73.3475 193° South 310 357 10,600  Level Boston Center
Wed 06:26:00 PM 43.9912 -73.3252 194° South  Level FlightAware Approximate
Wed 06:26:30 PM 44.1806 -73.3750 192° South 345 397 13,600  Level Boston Center
Wed 06:27:00 PM 43.9113 -73.3522 196° South  Level FlightAware Approximate
Wed 06:27:30 PM 44.0800 -73.4083 193° South 361 415 16,300  Level Boston Center
Wed 06:28:00 PM 43.8322 -73.3839 196° South  Level FlightAware Approximate
Wed 06:28:30 PM 43.9800 -73.4383 192° South 367 422 18,600  Level Boston Center
Wed 06:29:30 PM 43.8733 -73.4711 192° South 378 435 20,900 2,100 Climbing Boston Center
Wed 06:30:30 PM 43.7750 -73.5011 192° South 395 455 22,800 1,900 Climbing Boston Center
Wed 06:31:30 PM 43.6622 -73.5306 191° South 408 470 24,700 1,600 Climbing Boston Center
Wed 06:32:30 PM 43.5494 -73.5658 193° South 413 475 26,000 650 Climbing Boston Center
Wed 06:33:30 PM 43.4344 -73.6039 194° South 418 481 26,000  Level Boston Center
Wed 06:34:30 PM 43.3194 -73.6331 190° South 418 481 26,000  Level Boston Center
Wed 06:35:30 PM 43.2025 -73.6678 192° South 423 487 26,000  Level Boston Center
Wed 06:36:30 PM 43.0894 -73.7025 193° South 423 487 26,000  Level Boston Center
Wed 06:37:30 PM 42.9744 -73.7397 193° South 428 493 26,000  Level Boston Center
Wed 06:38:30 PM 42.8594 -73.7714 191° South 428 493 26,000  Level Boston Center
Wed 06:39:30 PM 42.7403 -73.8056 192° South 433 498 26,000  Level Boston Center
Wed 06:40:30 PM 42.6192 -73.8114 182° South 433 498 26,000  Level Boston Center
Wed 06:41:30 PM 42.5047 -73.8144 181° South 427 491 26,000  Level Boston Center
Wed 06:42:30 PM 42.3881 -73.8147 180° South 421 484 26,000  Level Boston Center
Wed 06:43:31 PM 42.2858 -73.8153 180° South 402 463 26,000  Level Boston Center
Wed 06:44:30 PM 42.1794 -73.8186 181° South 389 448 26,000  Level Boston Center
Wed 06:45:30 PM 42.0772 -73.8192 180° South 382 440 26,000  Level Boston Center
Wed 06:46:30 PM 41.9708 -73.8222 181° South 377 434 26,000 -300 Level Boston Center
Wed 06:47:30 PM 41.8767 -73.8592 196° South 377 434 25,400 -950 Descending Boston Center
Wed 06:48:30 PM 41.8503 -73.9786 254° West 302 348 24,100 -1,250 Descending Boston Center
Wed 06:49:30 PM 41.8403 -74.0953 263° West 293 337 22,900 -1,186 Descending Boston Center
Wed 06:51:27 PM 41.6544 -74.1556 194° South 351 404 20,600 -983 Descending New York Center
Wed 06:52:27 PM 41.5514 -74.1169 164° South 369 425 20,000 -305 Descending New York Center
Wed 06:53:25 PM 41.4400 -74.0836 167° South 376 433 20,000  Level New York Center
Wed 06:54:26 PM 41.3375 -74.0981 186° South 377 434 20,000  Level New York Center
Wed 06:55:26 PM 41.2478 -74.1789 214° Southwest 369 425 20,000 -397 Level New York Center
Wed 06:56:27 PM 41.1644 -74.2519 213° Southwest 364 419 19,200 -496 Descending New York Center
Wed 06:57:27 PM 41.0853 -74.3222 214° Southwest 352 405 19,000 -100 Descending New York Center
Wed 06:58:27 PM 41.0144 -74.3928 217° Southwest 341 392 19,000  Level New York Center
Wed 06:59:26 PM 40.9419 -74.4467 209° Southwest 330 380 19,000  Level New York Center
Wed 07:00:28 PM 40.8667 -74.3500 136° Southeast 364 419 19,000 -98 Level New York TRACON
Wed 07:01:28 PM 40.8500 -74.2167 99° East 362 417 18,800 -576 Descending New York TRACON
Wed 07:02:33 PM 40.8167 -74.0833 108° East 360 414 17,800 -1,150 Descending New York TRACON
Wed 07:03:28 PM 40.7333 -74.0333 156° South 348 400 16,500 -1,513 Descending New York TRACON
Wed 07:04:28 PM 40.6500 -74.0000 163° South 342 394 14,900 -1,600 Descending New York TRACON
Wed 07:05:28 PM 40.5667 -73.9667 163° South 334 384 13,300 -950 Descending New York TRACON
Wed 07:06:28 PM 40.4833 -73.9333 163° South 325 374 13,000 -950 Descending New York TRACON
Wed 07:07:28 PM 40.4000 -73.9000 163° South 310 357 11,400 -1,600 Descending New York TRACON
Wed 07:08:28 PM 40.3167 -73.8667 163° South 302 348 9,800 -1,650 Descending New York TRACON
Wed 07:09:28 PM 40.2667 -73.7833 128° Southeast 293 337 8,100 -1,350 Descending New York TRACON
Wed 07:10:28 PM 40.2833 -73.7000 75° East 278 320 7,100 -500 Descending New York TRACON
Wed 07:11:28 PM 40.3500 -73.6333 37° Northeast 268 308 7,100  Level New York TRACON
Wed 07:12:27 PM 40.4000 -73.5833 37° Northeast 269 310 7,100  Level New York TRACON
Wed 07:13:28 PM 40.4667 -73.5333 30° Northeast 272 313 7,100 -298 Level New York TRACON
Wed 07:14:28 PM 40.5333 -73.4833 30° Northeast 270 311 6,500 -1,050 Descending New York TRACON
Wed 07:15:28 PM 40.6167 -73.4667 North 259 298 5,000 -1,200 Descending New York TRACON
Wed 07:16:28 PM 40.6833 -73.4667 360° North 255 293 4,100 -450 Descending New York TRACON
Wed 07:17:28 PM 40.7500 -73.4833 349° North 252 290 4,100 -250 Level New York TRACON
Wed 07:18:28 PM 40.8000 -73.5000 346° North 202 232 3,600 -900 Descending New York TRACON
Wed 07:19:28 PM 40.8333 -73.5500 311° West 184 212 2,300 -750 Descending New York TRACON
Wed 07:20:28 PM 40.8167 -73.6167 252° West 187 215 2,100 -200 Descending New York TRACON

Login

Don't have an account? Register now (free) for customized features, flight alerts, and more!